KOT YDPO-YWYY

Flight info

Callsign KOT
Flight time 0h 25m
Altitude 1200
Route DCT
Aircraft C172/L-SFG/C

Departure

Time 2026-04-17 05:29
Airport Devonport Airport (YDPO)

Arrival

Time 2026-04-17 05:55
Airport Wynyard Airport (YWYY)
Time Latitude Longitude Altitude Speed Heading
2026-04-17 05:25 -41.16915 146.42649 38 ft 0 kts 340°
2026-04-17 05:26 -41.16913 146.42648 38 ft 3 kts 342°
2026-04-17 05:26 -41.16862 146.42601 40 ft 12 kts 281°
2026-04-17 05:26 -41.16879 146.42478 40 ft 14 kts 255°
2026-04-17 05:27 -41.16903 146.42359 39 ft 8 kts 253°
2026-04-17 05:27 -41.16891 146.42336 40 ft 5 kts 73°
2026-04-17 05:27 -41.16888 146.42348 39 ft 0 kts 74°
2026-04-17 05:28 -41.16859 146.42502 40 ft 45 kts 76°
2026-04-17 05:28 -41.16739 146.43119 78 ft 85 kts 77°
2026-04-17 05:28 -41.16516 146.43965 161 ft 107 kts 77°
2026-04-17 05:28 -41.16283 146.44954 345 ft 113 kts 77°
2026-04-17 05:29 -41.16030 146.45946 611 ft 116 kts 58°
2026-04-17 05:29 -41.15420 146.46521 879 ft 106 kts 356°
2026-04-17 05:29 -41.14817 146.46202 1070 ft 89 kts 291°
2026-04-17 05:29 -41.14724 146.45454 1089 ft 86 kts 245°
2026-04-17 05:30 -41.14909 146.44693 1216 ft 87 kts 246°
2026-04-17 05:30 -41.15087 146.43899 1288 ft 92 kts 247°
2026-04-17 05:30 -41.15175 146.43092 1359 ft 86 kts 255°
2026-04-17 05:30 -41.15131 146.42278 1383 ft 95 kts 273°
2026-04-17 05:31 -41.14912 146.41412 1315 ft 92 kts 273°
2026-04-17 05:31 -41.14759 146.40631 1312 ft 85 kts 270°
2026-04-17 05:31 -41.14644 146.39877 1306 ft 82 kts 267°
2026-04-17 05:31 -41.14568 146.39102 1304 ft 85 kts 263°
2026-04-17 05:32 -41.14531 146.38316 1306 ft 86 kts 262°
2026-04-17 05:32 -41.14537 146.37528 1332 ft 84 kts 258°
2026-04-17 05:32 -41.14544 146.36741 1365 ft 85 kts 257°
2026-04-17 05:32 -41.14593 146.35931 1349 ft 91 kts 256°
2026-04-17 05:33 -41.14651 146.35082 1322 ft 95 kts 257°
2026-04-17 05:33 -41.14641 146.34210 1352 ft 95 kts 269°
2026-04-17 05:33 -41.14470 146.33345 1369 ft 98 kts 274°
2026-04-17 05:33 -41.14331 146.32458 1367 ft 98 kts 269°
2026-04-17 05:34 -41.14250 146.31566 1373 ft 96 kts 263°
2026-04-17 05:34 -41.14233 146.30699 1372 ft 91 kts 259°
2026-04-17 05:34 -41.14271 146.29882 1379 ft 87 kts 256°
2026-04-17 05:34 -41.14285 146.29340 1369 ft 89 kts 264°
2026-04-17 05:35 -41.14257 146.28535 1381 ft 88 kts 264°
2026-04-17 05:35 -41.14234 146.27450 1385 ft 87 kts 263°
2026-04-17 05:35 -41.14228 146.26923 1386 ft 85 kts 260°
2026-04-17 05:35 -41.14229 146.26131 1362 ft 87 kts 259°
2026-04-17 05:36 -41.14251 146.25330 1377 ft 86 kts 259°
2026-04-17 05:36 -41.14295 146.24511 1358 ft 90 kts 256°
2026-04-17 05:36 -41.14324 146.23701 1371 ft 89 kts 256°
2026-04-17 05:36 -41.14357 146.22876 1344 ft 90 kts 257°
2026-04-17 05:37 -41.14377 146.22043 1355 ft 91 kts 260°
2026-04-17 05:37 -41.14359 146.21201 1375 ft 91 kts 263°
2026-04-17 05:37 -41.14312 146.20375 1351 ft 93 kts 264°
2026-04-17 05:37 -41.14239 146.19492 1313 ft 98 kts 267°
2026-04-17 05:38 -41.14105 146.18655 1420 ft 88 kts 270°
2026-04-17 05:38 -41.13975 146.17829 1402 ft 92 kts 273°
2026-04-17 05:38 -41.13797 146.17009 1405 ft 95 kts 276°
2026-04-17 05:38 -41.13524 146.16196 1409 ft 97 kts 284°
2026-04-17 05:39 -41.13210 146.15394 1397 ft 99 kts 285°
2026-04-17 05:39 -41.12889 146.14583 1407 ft 98 kts 287°
2026-04-17 05:39 -41.12552 146.13785 1394 ft 100 kts 289°
2026-04-17 05:39 -41.12179 146.12990 1367 ft 103 kts 290°
2026-04-17 05:40 -41.11785 146.12194 1397 ft 100 kts 287°
2026-04-17 05:40 -41.11462 146.11404 1375 ft 100 kts 284°
2026-04-17 05:40 -41.11153 146.10559 1341 ft 102 kts 282°
2026-04-17 05:40 -41.10866 146.09715 1360 ft 99 kts 281°
2026-04-17 05:41 -41.10568 146.08866 1325 ft 103 kts 283°
2026-04-17 05:41 -41.10240 146.08020 1324 ft 104 kts 285°
2026-04-17 05:41 -41.09908 146.07174 1342 ft 101 kts 284°
2026-04-17 05:41 -41.09571 146.06351 1348 ft 101 kts 284°
2026-04-17 05:42 -41.09211 146.05543 1343 ft 101 kts 287°
2026-04-17 05:42 -41.08876 146.04722 1344 ft 100 kts 284°
2026-04-17 05:42 -41.08597 146.03915 1344 ft 98 kts 279°
2026-04-17 05:42 -41.08346 146.03060 1292 ft 100 kts 278°
2026-04-17 05:43 -41.08094 146.02223 1322 ft 95 kts 277°
2026-04-17 05:43 -41.07819 146.01425 1327 ft 96 kts 280°
2026-04-17 05:43 -41.07481 146.00631 1306 ft 101 kts 284°
2026-04-17 05:43 -41.07137 145.99815 1303 ft 100 kts 280°
2026-04-17 05:44 -41.06859 145.98987 1305 ft 97 kts 278°
2026-04-17 05:44 -41.06640 145.98142 1302 ft 97 kts 274°
2026-04-17 05:44 -41.06413 145.97295 1312 ft 97 kts 277°
2026-04-17 05:44 -41.06178 145.96465 1348 ft 95 kts 275°
2026-04-17 05:45 -41.05939 145.95657 1411 ft 93 kts 278°
2026-04-17 05:45 -41.05698 145.94857 1378 ft 97 kts 276°
2026-04-17 05:45 -41.05471 145.94011 1379 ft 97 kts 275°
2026-04-17 05:45 -41.05247 145.93207 1445 ft 90 kts 269°
2026-04-17 05:46 -41.05115 145.92415 1501 ft 85 kts 265°
2026-04-17 05:46 -41.05008 145.91628 1448 ft 90 kts 267°
2026-04-17 05:46 -41.04841 145.90815 1409 ft 95 kts 277°
2026-04-17 05:46 -41.04653 145.89971 1310 ft 95 kts 269°
2026-04-17 05:47 -41.04507 145.89136 1290 ft 93 kts 272°
2026-04-17 05:47 -41.04347 145.88312 1247 ft 91 kts 271°
2026-04-17 05:47 -41.04203 145.87494 1242 ft 91 kts 270°
2026-04-17 05:47 -41.04048 145.86673 1211 ft 95 kts 274°
2026-04-17 05:48 -41.03850 145.85816 1195 ft 98 kts 275°
2026-04-17 05:48 -41.03670 145.84947 1181 ft 99 kts 275°
2026-04-17 05:48 -41.03469 145.84087 1202 ft 97 kts 276°
2026-04-17 05:48 -41.03289 145.83237 1220 ft 94 kts 273°
2026-04-17 05:49 -41.03147 145.82389 1200 ft 96 kts 271°
2026-04-17 05:49 -41.02998 145.81529 1221 ft 95 kts 272°
2026-04-17 05:49 -41.02883 145.80682 1225 ft 93 kts 264°
2026-04-17 05:49 -41.02832 145.79842 1199 ft 83 kts 256°
2026-04-17 05:50 -41.02843 145.79149 1325 ft 82 kts 262°
2026-04-17 05:50 -41.02543 145.78408 1232 ft 99 kts 289°
2026-04-17 05:50 -41.02203 145.77608 1075 ft 100 kts 279°
2026-04-17 05:50 -41.02054 145.76698 1045 ft 100 kts 274°
2026-04-17 05:51 -41.01905 145.75776 983 ft 103 kts 279°
2026-04-17 05:51 -41.01648 145.74924 951 ft 98 kts 282°
2026-04-17 05:51 -41.01438 145.74073 964 ft 94 kts 277°
2026-04-17 05:51 -41.01098 145.73328 1003 ft 101 kts 316°
2026-04-17 05:52 -41.00380 145.73177 1013 ft 117 kts
2026-04-17 05:52 -40.99569 145.73554 958 ft 126 kts 10°
2026-04-17 05:52 -40.98744 145.73751 1013 ft 114 kts 341°
2026-04-17 05:52 -40.98234 145.73140 927 ft 101 kts 279°
2026-04-17 05:53 -40.97976 145.72334 988 ft 87 kts 281°
2026-04-17 05:53 -40.97828 145.71681 961 ft 69 kts 263°
2026-04-17 05:53 -40.97972 145.71123 938 ft 70 kts 218°
2026-04-17 05:53 -40.98453 145.70908 699 ft 70 kts 207°
2026-04-17 05:54 -40.98862 145.70724 597 ft 56 kts 201°
2026-04-17 05:54 -40.99300 145.70691 486 ft 70 kts 182°
2026-04-17 05:54 -40.99521 145.71442 355 ft 109 kts 101°
2026-04-17 05:54 -40.99650 145.72372 131 ft 103 kts 108°
2026-04-17 05:55 -40.99738 145.72989 77 ft 0 kts 108°
2026-04-17 05:55 -40.99752 145.72983 77 ft 5 kts 251°
2026-04-17 05:55 -40.99740 145.72864 78 ft 21 kts 282°
2026-04-17 05:55 -40.99714 145.72702 74 ft 18 kts 275°
2026-04-17 05:56 -40.99685 145.72545 75 ft 17 kts 307°
2026-04-17 05:56 -40.99567 145.72540 77 ft 19 kts
2026-04-17 05:56 -40.99488 145.72475 80 ft 18 kts 276°
2026-04-17 05:56 -40.99480 145.72267 89 ft 30 kts 272°
2026-04-17 05:57 -40.99456 145.72048 82 ft 15 kts 312°
2026-04-17 05:57 -40.99378 145.72045 85 ft 6 kts 11°
2026-04-17 05:57 -40.99368 145.72063 85 ft 0 kts 82°